Time;durP1;ratioP1;P1;durP2;ratioP2;P2;SDS_P1;SDS_P2;PMS_P1;PMS_P2;Temp;Humidity;BMP_temperature;BMP_pressure;BME280_temperature;BME280_humidity;BME280_pressure;Samples;Min_cycle;Max_cycle;Signal;HPM_P1;HPM_P2
2021/10/28 00:13:08;;;;;;;6.03;2.53;;;;;;;;;;2071469;28;20417;-76
2021/10/28 00:14:27;;;;;;;11.05;2.28;;;;;;;;;;2072317;28;20026;-76
2021/10/28 00:15:55;;;;;;;9.70;2.47;;;;;;;;;;2072820;28;20069;-77
2021/10/28 00:17:18;;;;;;;7.72;2.75;;;;;;;;;;2072804;28;20491;-77
2021/10/28 00:18:43;;;;;;;7.05;2.33;;;;;;;;;;2073259;28;20018;-75
2021/10/28 00:20:02;;;;;;;8.02;2.45;;;;;;;;;;2074028;28;20033;-77
2021/10/28 00:21:21;;;;;;;10.77;2.42;;;;;;;;;;2069852;28;20057;-76
2021/10/28 00:22:40;;;;;;;13.98;3.05;;;;;;;;;;2069287;28;20502;-76
2021/10/28 00:24:01;;;;;;;9.05;2.30;;;;;;;;;;2075220;28;20029;-76
2021/10/28 00:25:20;;;;;;;9.35;2.60;;;;;;;;;;2081834;28;20025;-77
2021/10/28 00:26:41;;;;;;;7.55;2.25;;;;;;;;;;2071631;28;20058;-76
2021/10/28 00:28:01;;;;;;;11.25;2.22;;;;;;;;;;2071220;28;20105;-76
2021/10/28 00:29:21;;;;;;;7.93;2.25;;;;;;;;;;2073293;28;20475;-76
2021/10/28 00:30:39;;;;;;;8.20;2.30;;;;;;;;;;2072508;28;20042;-78
2021/10/28 00:31:59;;;;;;;7.65;2.67;;;;;;;;;;2069593;28;20112;-76
2021/10/28 00:33:18;;;;;;;8.85;2.65;;;;;;;;;;2071092;28;20029;-76
2021/10/28 00:34:38;;;;;;;10.80;2.63;;;;;;;;;;2072183;28;20025;-77
2021/10/28 00:35:58;;;;;;;7.35;2.72;;;;;;;;;;2068980;28;20023;-76
2021/10/28 00:37:17;;;;;;;7.20;2.42;;;;;;;;;;2071383;28;20619;-77
2021/10/28 00:38:37;;;;;;;8.80;2.33;;;;;;;;;;2072119;28;20034;-77
2021/10/28 00:39:57;;;;;;;9.38;2.78;;;;;;;;;;2071676;28;20109;-76
2021/10/28 00:41:20;;;;;;;7.60;2.97;;;;;;;;;;2072403;28;20033;-76
2021/10/28 00:42:39;;;;;;;;;;;;;;;;;;2067504;28;20128;-76
2021/10/28 00:43:59;;;;;;;10.02;2.47;;;;;;;;;;2073306;28;19944;-76
2021/10/28 00:45:22;;;;;;;5.25;2.80;;;;;;;;;;2077359;28;20026;-77
2021/10/28 00:46:41;;;;;;;8.10;2.20;;;;;;;;;;2071207;28;20034;-77
2021/10/28 00:48:01;;;;;;;5.43;2.20;;;;;;;;;;2070255;28;20030;-77
2021/10/28 00:49:20;;;;;;;12.80;2.95;;;;;;;;;;2079732;28;20392;-74
2021/10/28 00:50:39;;;;;;;12.10;2.72;;;;;;;;;;2075550;28;20425;-77
2021/10/28 00:51:58;;;;;;;8.55;2.90;;;;;;;;;;2071053;28;20021;-77
2021/10/28 00:53:17;;;;;;;6.57;2.58;;;;;;;;;;2070660;28;20038;-77
2021/10/28 00:54:36;;;;;;;8.80;2.25;;;;;;;;;;2071275;28;20490;-75
2021/10/28 00:55:55;;;;;;;7.68;2.13;;;;;;;;;;2071628;28;20109;-77
2021/10/28 00:57:14;;;;;;;12.90;3.00;;;;;;;;;;2080965;28;20033;-76
2021/10/28 00:58:34;;;;;;;10.68;2.60;;;;;;;;;;2072062;28;20470;-76
2021/10/28 00:59:53;;;;;;;5.70;2.30;;;;;;;;;;2070508;28;20030;-76
2021/10/28 01:01:12;;;;;;;10.07;2.55;;;;;;;;;;2070095;28;20022;-74
2021/10/28 01:02:31;;;;;;;8.38;2.75;;;;;;;;;;2073299;28;20026;-76
2021/10/28 01:03:53;;;;;;;7.18;2.47;;;;;;;;;;2072661;28;20105;-75
2021/10/28 01:05:12;;;;;;;8.80;2.70;;;;;;;;;;2071774;28;20109;-75
2021/10/28 01:06:32;;;;;;;11.95;2.83;;;;;;;;;;2067122;28;20058;-76
2021/10/28 01:07:51;;;;;;;7.65;2.42;;;;;;;;;;2067363;28;20038;-75
2021/10/28 01:09:11;;;;;;;4.47;2.35;;;;;;;;;;2070288;28;20030;-76
2021/10/28 01:10:30;;;;;;;5.80;2.38;;;;;;;;;;2070680;28;20038;-75
2021/10/28 01:11:53;;;;;;;7.40;2.22;;;;;;;;;;2070862;28;20065;-74
2021/10/28 01:13:13;;;;;;;12.88;3.08;;;;;;;;;;2071547;28;20069;-76
2021/10/28 01:14:42;;;;;;;12.30;2.75;;;;;;;;;;2069448;28;20034;-75
2021/10/28 01:16:00;;;;;;;6.93;2.25;;;;;;;;;;2070516;28;20034;-75
2021/10/28 01:17:19;;;;;;;6.70;2.42;;;;;;;;;;2071159;28;20026;-76
2021/10/28 01:18:38;;;;;;;11.55;2.83;;;;;;;;;;2071586;28;20062;-76
2021/10/28 01:19:58;;;;;;;6.30;2.70;;;;;;;;;;2071436;28;20026;-75
2021/10/28 01:21:17;;;;;;;6.20;2.60;;;;;;;;;;2070502;28;20027;-77
2021/10/28 01:22:38;;;;;;;9.43;2.65;;;;;;;;;;2069551;28;20497;-76
2021/10/28 01:23:57;;;;;;;5.88;2.03;;;;;;;;;;2070031;28;20033;-76
2021/10/28 01:25:16;;;;;;;6.07;2.45;;;;;;;;;;2072462;28;20026;-77
2021/10/28 01:26:35;;;;;;;11.43;2.30;;;;;;;;;;2068463;28;20132;-76
2021/10/28 01:27:54;;;;;;;11.68;2.75;;;;;;;;;;2070994;28;20551;-76
2021/10/28 01:29:13;;;;;;;7.43;2.50;;;;;;;;;;2071711;28;20042;-76
2021/10/28 01:30:32;;;;;;;9.05;2.80;;;;;;;;;;2071361;28;20094;-75
2021/10/28 01:31:51;;;;;;;11.15;2.72;;;;;;;;;;2070325;28;20030;-76
2021/10/28 01:33:09;;;;;;;7.97;2.53;;;;;;;;;;2070278;28;20034;-77
2021/10/28 01:34:28;;;;;;;7.07;3.03;;;;;;;;;;2071860;28;20423;-75
2021/10/28 01:35:48;;;;;;;9.48;3.03;;;;;;;;;;2068263;28;20130;-77
2021/10/28 01:37:08;;;;;;;10.45;2.80;;;;;;;;;;2069539;28;20510;-75
2021/10/28 01:38:27;;;;;;;8.65;2.92;;;;;;;;;;2079116;28;20042;-77
2021/10/28 01:39:46;;;;;;;8.73;2.95;;;;;;;;;;2073687;28;20026;-76
2021/10/28 01:41:06;;;;;;;13.50;3.13;;;;;;;;;;2070934;28;20026;-77
2021/10/28 01:42:25;;;;;;;10.70;2.92;;;;;;;;;;2068672;28;20030;-76
2021/10/28 01:43:44;;;;;;;12.07;3.05;;;;;;;;;;2071149;28;20038;-77
2021/10/28 01:45:03;;;;;;;8.68;2.78;;;;;;;;;;2072171;28;20108;-77
2021/10/28 01:46:22;;;;;;;10.93;2.80;;;;;;;;;;2068283;28;20479;-77
2021/10/28 01:47:41;;;;;;;13.32;2.78;;;;;;;;;;2072214;28;20034;-77
2021/10/28 01:49:00;;;;;;;6.43;2.50;;;;;;;;;;2079066;28;20022;-77
2021/10/28 01:50:19;;;;;;;8.25;3.00;;;;;;;;;;2079748;28;20034;-77
2021/10/28 01:51:38;;;;;;;5.93;2.28;;;;;;;;;;2079293;28;20097;-77
2021/10/28 01:52:59;;;;;;;5.85;2.55;;;;;;;;;;2073776;28;20109;-75
2021/10/28 01:54:18;;;;;;;11.40;3.05;;;;;;;;;;2070412;28;20030;-75
2021/10/28 01:55:38;;;;;;;12.27;2.90;;;;;;;;;;2075567;28;20034;-76
2021/10/28 01:56:58;;;;;;;6.78;2.40;;;;;;;;;;2083159;28;20033;-76
2021/10/28 01:58:22;;;;;;;7.05;2.50;;;;;;;;;;2074287;28;20113;-77
2021/10/28 01:59:40;;;;;;;6.97;2.67;;;;;;;;;;2070056;28;20038;-76
2021/10/28 02:01:00;;;;;;;5.78;2.25;;;;;;;;;;2069082;28;20038;-75
2021/10/28 02:02:19;;;;;;;5.97;2.42;;;;;;;;;;2070599;28;20068;-74
2021/10/28 02:03:37;;;;;;;7.32;2.78;;;;;;;;;;2070303;28;20045;-75
2021/10/28 02:04:56;;;;;;;9.85;2.72;;;;;;;;;;2077637;28;20029;-75
2021/10/28 02:06:16;;;;;;;6.55;2.60;;;;;;;;;;2072508;28;20402;-76
2021/10/28 02:07:35;;;;;;;14.30;3.03;;;;;;;;;;2071532;28;20030;-74
2021/10/28 02:08:54;;;;;;;8.25;2.92;;;;;;;;;;2066989;28;20109;-77
2021/10/28 02:10:14;;;;;;;7.72;2.35;;;;;;;;;;2073637;28;20610;-75
2021/10/28 02:11:36;;;;;;;8.10;2.30;;;;;;;;;;2072027;28;20038;-74
2021/10/28 02:12:56;;;;;;;8.20;2.47;;;;;;;;;;2074837;28;20141;-75
2021/10/28 02:14:15;;;;;;;10.15;2.70;;;;;;;;;;2073213;28;20057;-75
2021/10/28 02:15:34;;;;;;;11.43;2.60;;;;;;;;;;2070496;28;20041;-75
2021/10/28 02:16:53;;;;;;;8.82;2.53;;;;;;;;;;2068366;28;20029;-75
2021/10/28 02:18:12;;;;;;;9.75;2.65;;;;;;;;;;2073564;28;20479;-76
2021/10/28 02:19:31;;;;;;;10.45;3.50;;;;;;;;;;2079527;28;20046;-74
2021/10/28 02:20:50;;;;;;;9.10;3.10;;;;;;;;;;2074963;28;20033;-76
2021/10/28 02:22:09;;;;;;;4.25;2.42;;;;;;;;;;2071475;28;20034;-75
2021/10/28 02:23:28;;;;;;;8.73;2.70;;;;;;;;;;2073246;28;20038;-76
2021/10/28 02:24:47;;;;;;;7.68;2.85;;;;;;;;;;2074526;28;20486;-76
2021/10/28 02:26:06;;;;;;;8.27;2.78;;;;;;;;;;2070534;28;20034;-75
2021/10/28 02:27:25;;;;;;;13.80;3.03;;;;;;;;;;2072752;28;20030;-76
2021/10/28 02:28:44;;;;;;;9.93;2.78;;;;;;;;;;2072288;28;20049;-75
2021/10/28 02:30:04;;;;;;;8.75;2.47;;;;;;;;;;2072691;28;20038;-76
2021/10/28 02:31:23;;;;;;;9.77;2.63;;;;;;;;;;2071868;28;20029;-74
2021/10/28 02:32:43;;;;;;;7.35;2.33;;;;;;;;;;2072972;28;20029;-75
2021/10/28 02:34:01;;;;;;;9.65;2.80;;;;;;;;;;2069748;28;20022;-75
2021/10/28 02:35:20;;;;;;;8.60;2.83;;;;;;;;;;2074148;28;20438;-75
2021/10/28 02:36:39;;;;;;;7.97;2.78;;;;;;;;;;2070387;28;20478;-75
2021/10/28 02:37:58;;;;;;;9.45;2.78;;;;;;;;;;2070560;28;20041;-76
2021/10/28 02:39:17;;;;;;;6.97;2.70;;;;;;;;;;2073549;28;20073;-74
2021/10/28 02:40:36;;;;;;;4.78;2.20;;;;;;;;;;2072196;28;20073;-74
2021/10/28 02:41:56;;;;;;;6.95;2.47;;;;;;;;;;2071294;28;20604;-76
2021/10/28 02:43:14;;;;;;;8.82;3.00;;;;;;;;;;2068605;28;20026;-75
2021/10/28 02:44:33;;;;;;;9.02;2.78;;;;;;;;;;2069430;28;20030;-75
2021/10/28 02:45:53;;;;;;;7.43;2.85;;;;;;;;;;2077807;28;20025;-75
2021/10/28 02:47:11;;;;;;;9.80;3.03;;;;;;;;;;2073909;28;20434;-74
2021/10/28 02:48:30;;;;;;;6.75;2.72;;;;;;;;;;2070862;28;20041;-75
2021/10/28 02:49:49;;;;;;;9.32;2.70;;;;;;;;;;2071443;28;20116;-74
2021/10/28 02:51:08;;;;;;;9.60;2.97;;;;;;;;;;2073758;28;20037;-73
2021/10/28 02:52:27;;;;;;;9.20;2.50;;;;;;;;;;2078062;28;20017;-76
2021/10/28 02:53:46;;;;;;;8.95;2.70;;;;;;;;;;2066750;28;20113;-76
2021/10/28 02:55:05;;;;;;;8.43;2.53;;;;;;;;;;2071251;28;20061;-74
2021/10/28 02:56:24;;;;;;;8.65;3.10;;;;;;;;;;2073279;28;20033;-76
2021/10/28 02:57:42;;;;;;;7.18;2.38;;;;;;;;;;2071962;28;20097;-75
2021/10/28 02:59:01;;;;;;;8.95;2.92;;;;;;;;;;2072048;28;20018;-74
2021/10/28 03:00:21;;;;;;;9.80;3.30;;;;;;;;;;2071399;28;20033;-76
2021/10/28 03:01:42;;;;;;;6.85;2.30;;;;;;;;;;2072964;28;20421;-75
2021/10/28 03:03:02;;;;;;;3.45;2.47;;;;;;;;;;2071022;28;20034;-74
2021/10/28 03:04:22;;;;;;;10.48;2.28;;;;;;;;;;2072920;28;20033;-73
2021/10/28 03:05:41;;;;;;;6.30;2.53;;;;;;;;;;2069697;28;20402;-75
2021/10/28 03:07:00;;;;;;;10.68;2.83;;;;;;;;;;2074653;28;20034;-75
2021/10/28 03:08:19;;;;;;;7.55;2.30;;;;;;;;;;2073039;28;20089;-75
2021/10/28 03:09:38;;;;;;;6.35;2.63;;;;;;;;;;2072385;28;20034;-74
2021/10/28 03:10:57;;;;;;;6.85;2.22;;;;;;;;;;2072058;28;20029;-73
2021/10/28 03:12:16;;;;;;;10.13;3.28;;;;;;;;;;2073633;28;20033;-75
2021/10/28 03:13:36;;;;;;;7.90;2.60;;;;;;;;;;2071223;28;20038;-74
2021/10/28 03:14:58;;;;;;;8.70;2.40;;;;;;;;;;2068033;28;20446;-75
2021/10/28 03:16:29;;;;;;;4.50;2.42;;;;;;;;;;2074256;28;20034;-75
2021/10/28 03:25:45;;;;;;;4.90;2.47;;;;;;;;;;2072365;28;20038;-76
2021/10/28 03:27:04;;;;;;;7.13;2.70;;;;;;;;;;2073896;28;20026;-73
2021/10/28 03:28:23;;;;;;;6.95;2.72;;;;;;;;;;2071225;28;20050;-76
2021/10/28 03:29:42;;;;;;;5.38;2.63;;;;;;;;;;2080663;28;20409;-74
2021/10/28 03:31:01;;;;;;;7.75;2.40;;;;;;;;;;2072903;28;20532;-76
2021/10/28 03:32:21;;;;;;;6.15;2.20;;;;;;;;;;2073017;28;20022;-75
2021/10/28 03:33:44;;;;;;;8.55;2.80;;;;;;;;;;2073919;28;20026;-75
2021/10/28 03:35:06;;;;;;;6.45;2.33;;;;;;;;;;2072362;28;20022;-75
2021/10/28 03:36:49;;;;;;;6.78;2.85;;;;;;;;;;2071937;28;20061;-74
2021/10/28 03:40:06;;;;;;;7.10;2.58;;;;;;;;;;2069254;28;20022;-73
2021/10/28 04:05:21;;;;;;;5.97;2.50;;;;;;;;;;2072869;28;20053;-75
2021/10/28 04:28:55;;;;;;;7.18;2.75;;;;;;;;;;2069757;28;20061;-76
2021/10/28 04:30:23;;;;;;;6.50;2.92;;;;;;;;;;2070122;28;20482;-76
2021/10/28 04:31:42;;;;;;;6.00;2.95;;;;;;;;;;2072002;28;20367;-74
2021/10/28 04:33:01;;;;;;;5.32;3.08;;;;;;;;;;2072704;28;20061;-77
2021/10/28 04:34:20;;;;;;;4.03;2.50;;;;;;;;;;2071454;28;20456;-77
2021/10/28 04:35:39;;;;;;;11.13;2.80;;;;;;;;;;2071018;28;20096;-77
2021/10/28 04:36:58;;;;;;;6.15;2.63;;;;;;;;;;2078297;28;20029;-78
2021/10/28 04:38:17;;;;;;;5.97;2.85;;;;;;;;;;2074884;28;20038;-75
2021/10/28 04:39:37;;;;;;;9.23;3.60;;;;;;;;;;2073482;28;20034;-76
2021/10/28 04:40:56;;;;;;;6.40;2.95;;;;;;;;;;2071923;28;20065;-77
2021/10/28 04:42:15;;;;;;;5.97;3.05;;;;;;;;;;2070852;28;20031;-77
2021/10/28 04:43:34;;;;;;;7.63;3.35;;;;;;;;;;2071532;28;20105;-79
2021/10/28 04:44:52;;;;;;;9.85;3.58;;;;;;;;;;2071473;28;20030;-77
2021/10/28 04:46:11;;;;;;;4.68;3.00;;;;;;;;;;2070976;28;20038;-79
2021/10/28 04:47:30;;;;;;;8.07;3.55;;;;;;;;;;2076287;28;20030;-77
2021/10/28 04:48:49;;;;;;;8.32;3.40;;;;;;;;;;2076594;28;20030;-79
2021/10/28 04:50:09;;;;;;;12.32;3.78;;;;;;;;;;2075063;28;20098;-77
2021/10/28 04:51:27;;;;;;;7.05;3.50;;;;;;;;;;2070837;28;20034;-76
2021/10/28 04:52:47;;;;;;;10.80;3.75;;;;;;;;;;2080098;28;20112;-78
2021/10/28 04:54:05;;;;;;;8.90;3.38;;;;;;;;;;2077298;28;20022;-76
2021/10/28 04:55:24;;;;;;;7.50;3.30;;;;;;;;;;2070623;28;20489;-76
2021/10/28 04:56:43;;;;;;;6.32;3.10;;;;;;;;;;2067903;28;20025;-75
2021/10/28 04:58:04;;;;;;;6.22;3.30;;;;;;;;;;2069181;28;20024;-76
2021/10/28 04:59:22;;;;;;;6.50;3.50;;;;;;;;;;2068146;28;20096;-77
2021/10/28 05:00:41;;;;;;;7.95;3.20;;;;;;;;;;2065671;28;20038;-78
2021/10/28 05:02:00;;;;;;;9.27;3.40;;;;;;;;;;2066111;28;20038;-78
2021/10/28 05:03:19;;;;;;;6.30;3.05;;;;;;;;;;2072563;28;20041;-79
2021/10/28 05:04:38;;;;;;;6.25;3.67;;;;;;;;;;2068710;28;20478;-77
2021/10/28 05:05:57;;;;;;;7.63;3.72;;;;;;;;;;2069188;28;20507;-77
2021/10/28 05:07:16;;;;;;;5.82;3.45;;;;;;;;;;2069670;28;20042;-77
2021/10/28 05:08:35;;;;;;;7.65;3.47;;;;;;;;;;2068855;28;20033;-77
2021/10/28 05:09:54;;;;;;;6.22;3.28;;;;;;;;;;2071944;28;20025;-77
2021/10/28 05:11:17;;;;;;;8.10;4.28;;;;;;;;;;2070885;28;20117;-76
2021/10/28 05:12:36;;;;;;;7.70;4.05;;;;;;;;;;2071565;28;20046;-79
2021/10/28 05:13:55;;;;;;;6.38;3.95;;;;;;;;;;2078278;28;20034;-78
2021/10/28 05:15:14;;;;;;;9.57;4.22;;;;;;;;;;2075189;28;20022;-77
2021/10/28 05:16:33;;;;;;;8.25;3.95;;;;;;;;;;2071976;28;20034;-74
2021/10/28 05:17:52;;;;;;;7.00;3.83;;;;;;;;;;2070625;28;20451;-76
2021/10/28 05:19:11;;;;;;;8.73;4.32;;;;;;;;;;2071775;28;20022;-80
2021/10/28 05:20:30;;;;;;;5.28;3.47;;;;;;;;;;2068758;28;20386;-76
2021/10/28 05:21:49;;;;;;;8.40;3.83;;;;;;;;;;2070671;28;20053;-75
2021/10/28 05:23:11;;;;;;;8.55;4.10;;;;;;;;;;2069125;28;20419;-72
2021/10/28 05:24:31;;;;;;;14.50;3.72;;;;;;;;;;2070716;28;20034;-78
2021/10/28 05:25:50;;;;;;;8.10;4.28;;;;;;;;;;2071258;28;20061;-78
2021/10/28 05:27:09;;;;;;;7.00;4.30;;;;;;;;;;2065535;28;20618;-73
2021/10/28 05:28:28;;;;;;;9.48;4.90;;;;;;;;;;2067140;28;20405;-76
2021/10/28 05:29:47;;;;;;;8.20;4.72;;;;;;;;;;2066202;28;20501;-75
2021/10/28 05:31:06;;;;;;;13.13;5.18;;;;;;;;;;2071089;28;20046;-76
2021/10/28 05:32:26;;;;;;;7.80;4.38;;;;;;;;;;2070526;28;20398;-75
2021/10/28 05:33:45;;;;;;;10.10;4.35;;;;;;;;;;2068050;28;20023;-75
2021/10/28 05:35:04;;;;;;;8.93;4.05;;;;;;;;;;2068357;28;20022;-78
2021/10/28 05:36:22;;;;;;;12.13;5.50;;;;;;;;;;2070802;28;20045;-76
2021/10/28 05:37:41;;;;;;;8.02;4.80;;;;;;;;;;2066808;28;20090;-73
2021/10/28 05:39:01;;;;;;;9.65;4.43;;;;;;;;;;2068657;28;20506;-74
2021/10/28 05:40:20;;;;;;;8.25;4.82;;;;;;;;;;2071963;28;20038;-76
2021/10/28 05:41:39;;;;;;;11.82;5.47;;;;;;;;;;2070941;28;20033;-79
2021/10/28 05:42:58;;;;;;;10.80;4.88;;;;;;;;;;2070523;28;20026;-79
2021/10/28 05:44:17;;;;;;;10.15;4.32;;;;;;;;;;2076243;28;20025;-76
2021/10/28 05:45:37;;;;;;;11.98;4.72;;;;;;;;;;2075251;28;20034;-79
2021/10/28 05:46:56;;;;;;;7.47;4.78;;;;;;;;;;2071864;28;20030;-76
2021/10/28 05:48:15;;;;;;;9.25;5.10;;;;;;;;;;2072145;28;20026;-73
2021/10/28 05:49:34;;;;;;;9.35;4.68;;;;;;;;;;2070103;28;20465;-80
2021/10/28 05:50:53;;;;;;;6.18;4.85;;;;;;;;;;2065978;28;20038;-80
2021/10/28 05:52:12;;;;;;;6.40;4.18;;;;;;;;;;2068512;28;20038;-77
2021/10/28 05:53:31;;;;;;;9.85;4.32;;;;;;;;;;2071642;28;20027;-78
2021/10/28 05:54:50;;;;;;;8.35;4.70;;;;;;;;;;2069190;28;20037;-80
2021/10/28 05:56:09;;;;;;;6.43;4.65;;;;;;;;;;2072002;28;20038;-79
2021/10/28 05:57:28;;;;;;;6.82;4.75;;;;;;;;;;2072133;28;20018;-79
2021/10/28 05:58:47;;;;;;;7.07;4.50;;;;;;;;;;2067041;28;20034;-80
2021/10/28 06:00:07;;;;;;;6.18;4.15;;;;;;;;;;2071523;28;20042;-79
2021/10/28 06:01:26;;;;;;;5.18;4.05;;;;;;;;;;2072099;28;20042;-80
2021/10/28 06:02:45;;;;;;;7.88;4.28;;;;;;;;;;2070213;28;20194;-80
2021/10/28 06:04:05;;;;;;;6.03;4.53;;;;;;;;;;2070818;28;20135;-79
2021/10/28 06:05:25;;;;;;;5.60;4.72;;;;;;;;;;2071404;28;20105;-79
2021/10/28 06:06:43;;;;;;;9.77;4.93;;;;;;;;;;2079205;28;20029;-79
2021/10/28 06:08:02;;;;;;;8.82;4.97;;;;;;;;;;2069439;28;20449;-81
2021/10/28 06:09:21;;;;;;;5.93;4.43;;;;;;;;;;2070041;28;20469;-74
2021/10/28 06:10:40;;;;;;;5.20;4.28;;;;;;;;;;2072126;28;20057;-80
2021/10/28 06:12:00;;;;;;;6.40;4.47;;;;;;;;;;2070738;28;20022;-80
2021/10/28 06:13:19;;;;;;;7.00;4.13;;;;;;;;;;2071369;28;20510;-80
2021/10/28 06:14:38;;;;;;;8.38;3.97;;;;;;;;;;2067573;28;20112;-78
2021/10/28 06:15:58;;;;;;;5.22;4.22;;;;;;;;;;2071120;28;20410;-80
2021/10/28 06:17:18;;;;;;;6.22;4.32;;;;;;;;;;2072305;28;20030;-80
2021/10/28 06:18:39;;;;;;;4.82;4.07;;;;;;;;;;2072715;28;20478;-80
2021/10/28 06:19:59;;;;;;;7.68;4.97;;;;;;;;;;2067163;28;20033;-80
2021/10/28 06:21:23;;;;;;;6.65;4.60;;;;;;;;;;2070062;28;20034;-80
2021/10/28 06:22:42;;;;;;;7.03;4.45;;;;;;;;;;2071164;28;20030;-75
2021/10/28 06:24:01;;;;;;;4.68;4.28;;;;;;;;;;2072035;28;20165;-79
2021/10/28 06:25:20;;;;;;;7.70;4.65;;;;;;;;;;2072071;28;20027;-78
2021/10/28 06:26:39;;;;;;;7.78;5.25;;;;;;;;;;2071934;28;20070;-79
2021/10/28 06:27:58;;;;;;;6.18;4.70;;;;;;;;;;2071008;28;20022;-79
2021/10/28 06:29:17;;;;;;;5.45;4.28;;;;;;;;;;2080121;28;20029;-80
2021/10/28 06:30:36;;;;;;;4.60;4.20;;;;;;;;;;2073818;28;20398;-80
2021/10/28 06:31:56;;;;;;;5.68;4.60;;;;;;;;;;2069674;28;20026;-80
2021/10/28 06:33:20;;;;;;;4.95;4.55;;;;;;;;;;2070832;28;20474;-81
2021/10/28 06:34:42;;;;;;;5.72;4.60;;;;;;;;;;2070117;28;20062;-75
2021/10/28 06:36:03;;;;;;;5.25;4.85;;;;;;;;;;2075859;28;20489;-79
2021/10/28 06:37:22;;;;;;;5.88;5.38;;;;;;;;;;2070890;28;20485;-78
2021/10/28 06:38:41;;;;;;;6.15;5.55;;;;;;;;;;2071789;28;20026;-78
2021/10/28 06:40:00;;;;;;;5.07;4.55;;;;;;;;;;2073499;28;20533;-77
2021/10/28 06:41:18;;;;;;;6.38;4.70;;;;;;;;;;2072568;28;20109;-78
2021/10/28 06:42:37;;;;;;;5.38;4.88;;;;;;;;;;2072443;28;20073;-81
2021/10/28 06:43:59;;;;;;;5.07;4.60;;;;;;;;;;2072066;28;20026;-81
2021/10/28 06:45:19;;;;;;;8.00;5.25;;;;;;;;;;2071868;28;20060;-79
2021/10/28 06:46:38;;;;;;;6.85;5.57;;;;;;;;;;2071859;28;20058;-81
2021/10/28 06:47:57;;;;;;;6.45;4.93;;;;;;;;;;2072600;28;20030;-81
2021/10/28 06:49:18;;;;;;;5.22;4.82;;;;;;;;;;2072386;28;20062;-81
2021/10/28 06:50:41;;;;;;;6.20;4.95;;;;;;;;;;2073836;28;20034;-78
2021/10/28 06:52:02;;;;;;;6.10;5.18;;;;;;;;;;2072290;28;20022;-78
2021/10/28 06:53:26;;;;;;;6.93;5.07;;;;;;;;;;2072713;28;20022;-77
2021/10/28 06:54:46;;;;;;;6.05;4.78;;;;;;;;;;2072221;28;20026;-79
2021/10/28 06:56:15;;;;;;;6.03;4.97;;;;;;;;;;2072171;28;20104;-80
2021/10/28 06:57:57;;;;;;;5.07;4.53;;;;;;;;;;2071694;28;20123;-80
2021/10/28 07:03:48;;;;;;;4.82;4.35;;;;;;;;;;2073587;28;20026;-81
2021/10/28 07:05:07;;;;;;;5.80;4.88;;;;;;;;;;2071992;28;20034;-81
2021/10/28 07:06:27;;;;;;;4.97;4.47;;;;;;;;;;2071723;28;20038;-75
2021/10/28 07:07:47;;;;;;;7.00;5.38;;;;;;;;;;2081111;28;20069;-80
2021/10/28 07:09:59;;;;;;;6.28;5.15;;;;;;;;;;2075200;28;20038;-81
2021/10/28 07:10:46;;;;;;;6.80;4.65;;;;;;;;;;2066740;28;20042;-80
2021/10/28 07:13:32;;;;;;;5.32;4.80;;;;;;;;;;2073515;28;20057;-79
2021/10/28 07:14:54;;;;;;;4.30;4.00;;;;;;;;;;2073839;28;20082;-79
2021/10/28 07:19:44;;;;;;;5.82;5.22;;;;;;;;;;2072384;28;20034;-80
2021/10/28 07:24:38;;;;;;;5.68;4.20;;;;;;;;;;2072481;28;20386;-80
2021/10/28 07:32:42;;;;;;;3.92;3.63;;;;;;;;;;2071996;28;20025;-78
2021/10/28 07:55:50;;;;;;;3.17;2.88;;;;;;;;;;2070846;28;20033;-80
2021/10/28 08:04:48;;;;;;;3.20;2.95;;;;;;;;;;2070300;28;20058;-80
2021/10/28 08:16:43;;;;;;;2.47;2.38;;;;;;;;;;2073445;28;20500;-82
2021/10/28 08:21:48;;;;;;;2.90;2.63;;;;;;;;;;2073162;28;20038;-82
2021/10/28 08:23:02;;;;;;;2.42;2.33;;;;;;;;;;2069425;28;20037;-84
2021/10/28 08:29:06;;;;;;;2.38;2.25;;;;;;;;;;2071413;28;20037;-81
2021/10/28 08:30:27;;;;;;;2.22;2.00;;;;;;;;;;2070981;28;20445;-81
2021/10/28 08:31:47;;;;;;;2.10;2.00;;;;;;;;;;2072137;28;20029;-82
2021/10/28 08:33:06;;;;;;;2.30;2.10;;;;;;;;;;2069515;28;20513;-78
2021/10/28 08:34:28;;;;;;;2.40;2.20;;;;;;;;;;2071055;28;20033;-82
2021/10/28 08:35:53;;;;;;;2.85;1.90;;;;;;;;;;2070109;28;20033;-82
2021/10/28 08:37:15;;;;;;;3.30;2.25;;;;;;;;;;2079033;28;20017;-82
2021/10/28 08:38:34;;;;;;;2.22;2.00;;;;;;;;;;2071737;28;20062;-83
2021/10/28 08:39:53;;;;;;;1.88;1.77;;;;;;;;;;2070366;28;20061;-82
2021/10/28 08:41:13;;;;;;;4.53;2.13;;;;;;;;;;2069481;28;22663;-82
2021/10/28 08:42:32;;;;;;;1.92;1.80;;;;;;;;;;2079863;28;20030;-81
2021/10/28 08:43:53;;;;;;;2.10;1.73;;;;;;;;;;2078849;28;20037;-79
2021/10/28 08:45:16;;;;;;;2.58;1.80;;;;;;;;;;2073112;28;20018;-81
2021/10/28 08:46:36;;;;;;;1.80;1.70;;;;;;;;;;2071313;28;20034;-80
2021/10/28 08:47:57;;;;;;;2.25;1.95;;;;;;;;;;2071579;28;20061;-82
2021/10/28 08:49:24;;;;;;;1.67;1.58;;;;;;;;;;2080061;28;20517;-82
2021/10/28 08:50:50;;;;;;;3.13;1.83;;;;;;;;;;2070710;28;20034;-82
2021/10/28 08:56:56;;;;;;;2.00;1.90;;;;;;;;;;2072193;28;20430;-82
2021/10/28 08:58:35;;;;;;;1.90;1.80;;;;;;;;;;2071296;28;20037;-82
2021/10/28 09:25:41;;;;;;;1.38;1.27;;;;;;;;;;2070696;28;20038;-80
2021/10/28 09:27:08;;;;;;;1.63;1.52;;;;;;;;;;2069344;28;20433;-79
2021/10/28 09:28:37;;;;;;;1.70;1.60;;;;;;;;;;2079841;28;20567;-81
2021/10/28 09:31:27;;;;;;;1.58;1.48;;;;;;;;;;2072436;28;20042;-80
2021/10/28 09:32:51;;;;;;;1.95;1.40;;;;;;;;;;2072633;28;20030;-82
2021/10/28 09:34:30;;;;;;;1.50;1.40;;;;;;;;;;2072640;28;20038;-81
2021/10/28 09:36:15;;;;;;;1.27;1.20;;;;;;;;;;2072191;28;20037;-78
2021/10/28 09:44:37;;;;;;;2.13;1.30;;;;;;;;;;2071025;28;20038;-80
2021/10/28 09:46:16;;;;;;;2.15;1.20;;;;;;;;;;2071921;28;20441;-78
2021/10/28 09:47:42;;;;;;;1.40;1.30;;;;;;;;;;2069750;28;20042;-82
2021/10/28 09:50:38;;;;;;;1.17;1.08;;;;;;;;;;2071930;28;20033;-78
2021/10/28 09:53:27;;;;;;;1.45;1.23;;;;;;;;;;2070879;28;20066;-80
2021/10/28 09:57:36;;;;;;;1.35;1.25;;;;;;;;;;2071776;28;20549;-79
2021/10/28 09:58:28;;;;;;;1.27;1.20;;;;;;;;;;2069509;28;20058;-79
2021/10/28 09:59:47;;;;;;;2.08;1.40;;;;;;;;;;2072393;28;20475;-81
2021/10/28 10:01:09;;;;;;;1.88;1.42;;;;;;;;;;2069822;28;20037;-81
2021/10/28 10:03:48;;;;;;;3.67;1.35;;;;;;;;;;2068205;28;20061;-79
2021/10/28 10:05:18;;;;;;;8.13;2.00;;;;;;;;;;2070415;28;20031;-81
2021/10/28 10:06:40;;;;;;;1.15;1.05;;;;;;;;;;2071201;28;20054;-80
2021/10/28 10:08:00;;;;;;;1.23;1.13;;;;;;;;;;2071099;28;20030;-78
2021/10/28 10:09:19;;;;;;;1.40;1.23;;;;;;;;;;2069599;28;20026;-78
2021/10/28 10:10:39;;;;;;;1.70;1.10;;;;;;;;;;2071347;28;20038;-78
2021/10/28 10:11:58;;;;;;;2.95;1.30;;;;;;;;;;2072786;28;20030;-76
2021/10/28 10:13:20;;;;;;;1.77;1.20;;;;;;;;;;2077488;28;20049;-82
2021/10/28 10:14:40;;;;;;;1.10;1.10;;;;;;;;;;2072541;28;20018;-79
2021/10/28 10:16:01;;;;;;;1.58;1.48;;;;;;;;;;2068447;28;20022;-80
2021/10/28 10:17:20;;;;;;;1.23;1.05;;;;;;;;;;2073002;28;20026;-76
2021/10/28 10:18:39;;;;;;;2.58;1.30;;;;;;;;;;2081253;28;20113;-79
2021/10/28 10:20:00;;;;;;;1.35;1.25;;;;;;;;;;2070928;28;20021;-80
2021/10/28 10:21:43;;;;;;;1.55;1.27;;;;;;;;;;2069162;28;20030;-80
2021/10/28 10:23:32;;;;;;;2.08;1.10;;;;;;;;;;2071546;28;20026;-76
2021/10/28 10:28:42;;;;;;;1.90;1.00;;;;;;;;;;2072329;28;20029;-80
2021/10/28 10:30:12;;;;;;;1.83;1.25;;;;;;;;;;2071322;28;20485;-77
2021/10/28 11:03:07;;;;;;;3.15;1.30;;;;;;;;;;2071008;28;20026;-77
2021/10/28 11:16:09;;;;;;;1.40;1.30;;;;;;;;;;2071716;28;20022;-82
2021/10/28 11:19:58;;;;;;;2.33;1.17;;;;;;;;;;2072249;28;20038;-82
2021/10/28 11:23:14;;;;;;;1.45;1.10;;;;;;;;;;2068806;28;20037;-79
2021/10/28 11:27:44;;;;;;;0.90;0.90;;;;;;;;;;2069457;28;20026;-79
2021/10/28 12:01:25;;;;;;;1.42;1.30;;;;;;;;;;2072172;28;19913;-76
2021/10/28 12:25:09;;;;;;;1.65;1.30;;;;;;;;;;2071362;28;20034;-76
2021/10/28 12:44:26;;;;;;;1.33;1.10;;;;;;;;;;2069534;28;20029;-77
2021/10/28 12:45:54;;;;;;;3.40;1.25;;;;;;;;;;2070574;28;20445;-77
2021/10/28 12:49:15;;;;;;;2.53;1.40;;;;;;;;;;2071746;28;20431;-77
2021/10/28 12:54:10;;;;;;;1.38;1.27;;;;;;;;;;2070215;28;20034;-77
2021/10/28 13:03:10;;;;;;;1.98;1.17;;;;;;;;;;2071542;28;20026;-78
2021/10/28 13:04:49;;;;;;;5.40;1.50;;;;;;;;;;2070830;28;20034;-77
2021/10/28 13:48:03;;;;;;;1.90;1.35;;;;;;;;;;2071078;28;20026;-77
2021/10/28 13:57:30;;;;;;;2.72;1.50;;;;;;;;;;2070307;28;20424;-76
2021/10/28 13:59:26;;;;;;;4.20;1.90;;;;;;;;;;2070891;28;20030;-76
2021/10/28 14:26:22;;;;;;;5.40;1.90;;;;;;;;;;2071008;28;20062;-79
2021/10/28 14:32:33;;;;;;;3.60;1.90;;;;;;;;;;2071727;28;20482;-79
2021/10/28 15:27:59;;;;;;;2.78;2.20;;;;;;;;;;2072005;28;20038;-79
2021/10/28 15:29:45;;;;;;;2.75;2.08;;;;;;;;;;2073162;28;20498;-75
2021/10/28 15:31:47;;;;;;;2.08;1.88;;;;;;;;;;2073623;28;20205;-78
2021/10/28 15:50:18;;;;;;;2.22;1.52;;;;;;;;;;2073413;28;20064;-77
2021/10/28 15:54:58;;;;;;;3.85;1.50;;;;;;;;;;2072961;28;20026;-77
2021/10/28 16:22:08;;;;;;;3.15;2.00;;;;;;;;;;2070522;28;20069;-81
2021/10/28 16:23:27;;;;;;;2.83;2.30;;;;;;;;;;2072250;28;20501;-81
2021/10/28 16:24:45;;;;;;;4.50;2.45;;;;;;;;;;2071228;28;20490;-79
2021/10/28 16:26:04;;;;;;;2.05;1.80;;;;;;;;;;2072460;28;20022;-78
2021/10/28 16:27:23;;;;;;;2.75;2.10;;;;;;;;;;2074664;28;20034;-79